createdAt,value
2018-12-05T00:01:52.886Z,-1.10
2018-12-05T00:04:20.386Z,-1.10
2018-12-05T00:06:49.033Z,-1.20
2018-12-05T00:09:16.615Z,-1.20
2018-12-05T00:11:44.114Z,-1.30
2018-12-05T00:14:11.940Z,-1.30
2018-12-05T00:16:39.664Z,-1.30
2018-12-05T00:19:07.254Z,-1.40
2018-12-05T00:21:34.906Z,-1.40
2018-12-05T00:24:02.436Z,-1.40
2018-12-05T00:26:29.957Z,-1.40
2018-12-05T00:28:57.472Z,-1.40
2018-12-05T00:31:24.996Z,-1.50
2018-12-05T00:33:53.133Z,-1.40
2018-12-05T00:36:20.624Z,-1.50
2018-12-05T00:38:49.002Z,-1.40
2018-12-05T00:41:17.122Z,-1.40
2018-12-05T00:43:44.676Z,-1.40
2018-12-05T00:46:12.176Z,-1.40
2018-12-05T00:48:39.909Z,-1.40
2018-12-05T00:51:07.409Z,-1.50
2018-12-05T00:53:34.925Z,-1.40
2018-12-05T00:56:02.710Z,-1.50
2018-12-05T00:58:30.318Z,-1.40
2018-12-05T01:00:58.775Z,-1.50
2018-12-05T01:03:26.480Z,-1.40
2018-12-05T01:05:55.219Z,-1.50
2018-12-05T01:08:22.727Z,-1.40
2018-12-05T01:10:50.265Z,-1.50
2018-12-05T01:13:17.755Z,-1.50
2018-12-05T01:15:45.247Z,-1.50
2018-12-05T01:18:12.736Z,-1.60
2018-12-05T01:20:40.288Z,-1.60
2018-12-05T01:23:08.725Z,-1.60
2018-12-05T01:25:36.852Z,-1.60
2018-12-05T01:28:04.533Z,-1.60
2018-12-05T01:30:32.053Z,-1.70
2018-12-05T01:32:59.919Z,-1.70
2018-12-05T01:35:28.018Z,-1.70
2018-12-05T01:37:55.618Z,-1.80
2018-12-05T01:40:23.125Z,-1.80
2018-12-05T01:42:50.859Z,-1.80
2018-12-05T01:45:19.360Z,-1.80
2018-12-05T01:47:46.980Z,-1.80
2018-12-05T01:50:15.392Z,-1.70
2018-12-05T01:52:42.982Z,-1.70
2018-12-05T01:55:10.506Z,-1.60
2018-12-05T01:57:38.088Z,-1.60
2018-12-05T02:00:06.816Z,-1.60
2018-12-05T02:02:34.992Z,-1.60
2018-12-05T02:05:02.653Z,-1.60
2018-12-05T02:07:30.165Z,-1.60
2018-12-05T02:09:57.874Z,-1.60
2018-12-05T02:12:25.883Z,-1.70
2018-12-05T02:14:53.585Z,-1.70
2018-12-05T02:17:21.615Z,-1.70
2018-12-05T02:19:50.391Z,-1.70
2018-12-05T02:22:17.893Z,-1.80
2018-12-05T02:24:45.505Z,-1.80
2018-12-05T02:27:13.282Z,-1.80
2018-12-05T02:29:46.727Z,-1.80
2018-12-05T02:32:14.223Z,-1.80
2018-12-05T02:34:41.807Z,-1.80
2018-12-05T02:37:09.412Z,-1.80
2018-12-05T02:39:36.934Z,-1.80
2018-12-05T02:42:04.460Z,-1.80
2018-12-05T02:44:32.096Z,-1.70
2018-12-05T02:46:59.744Z,-1.80
2018-12-05T02:49:27.622Z,-1.80
2018-12-05T02:51:55.652Z,-1.80
2018-12-05T02:54:23.489Z,-1.90
2018-12-05T02:56:51.082Z,-1.90
2018-12-05T02:59:18.940Z,-1.90
2018-12-05T03:01:46.517Z,-1.90
2018-12-05T03:04:14.013Z,-1.90
2018-12-05T03:09:35.438Z,-2.00
2018-12-05T03:14:56.012Z,-2.00
2018-12-05T03:17:23.608Z,-2.00
2018-12-05T03:19:51.270Z,-2.00
2018-12-05T03:22:18.936Z,-2.00
2018-12-05T03:24:46.428Z,-2.00
2018-12-05T03:27:14.532Z,-2.00
2018-12-05T03:29:42.303Z,-2.00
2018-12-05T03:32:10.956Z,-2.00
2018-12-05T03:34:39.391Z,-2.00
2018-12-05T03:37:06.966Z,-2.00
2018-12-05T03:39:34.449Z,-2.10
2018-12-05T03:42:01.966Z,-2.00
2018-12-05T03:44:30.340Z,-2.00
2018-12-05T03:46:57.962Z,-2.00
2018-12-05T03:49:25.653Z,-2.10
2018-12-05T03:51:53.972Z,-2.10
2018-12-05T03:54:21.609Z,-2.10
2018-12-05T03:56:49.110Z,-2.10
2018-12-05T03:59:16.770Z,-2.20
2018-12-05T04:01:44.598Z,-2.20
2018-12-05T04:04:12.783Z,-2.20
2018-12-05T04:06:40.462Z,-2.30
2018-12-05T04:09:09.509Z,-2.30
2018-12-05T04:11:37.950Z,-2.30
2018-12-05T04:14:05.799Z,-2.30
2018-12-05T04:16:33.558Z,-2.40
2018-12-05T04:19:01.309Z,-2.40
2018-12-05T04:21:29.067Z,-2.40
2018-12-05T04:23:56.743Z,-2.40
2018-12-05T04:26:25.235Z,-2.50
2018-12-05T04:28:52.889Z,-2.50
2018-12-05T04:31:20.610Z,-2.60
2018-12-05T04:33:48.433Z,-2.60
2018-12-05T04:36:16.160Z,-2.70
2018-12-05T04:38:44.476Z,-2.70
2018-12-05T04:41:12.052Z,-2.80
2018-12-05T04:43:39.971Z,-2.80
2018-12-05T04:46:08.490Z,-2.90
2018-12-05T04:48:36.840Z,-2.90
2018-12-05T04:51:05.042Z,-2.90
2018-12-05T04:53:33.518Z,-2.90
2018-12-05T04:56:01.090Z,-2.90
2018-12-05T04:58:28.834Z,-2.90
2018-12-05T05:00:56.611Z,-2.90
2018-12-05T05:03:24.360Z,-2.90
2018-12-05T05:05:52.121Z,-3.00
2018-12-05T05:08:28.231Z,-3.00
2018-12-05T05:11:01.952Z,-3.10
2018-12-05T05:13:43.500Z,-3.10
2018-12-05T05:16:12.008Z,-3.10
2018-12-05T05:18:52.064Z,-3.20
2018-12-05T05:21:19.682Z,-3.20
2018-12-05T05:26:49.234Z,-3.20
2018-12-05T05:29:17.712Z,-3.20
2018-12-05T05:31:45.409Z,-3.20
2018-12-05T05:34:13.041Z,-3.20
2018-12-05T05:36:40.661Z,-3.20
2018-12-05T05:39:09.207Z,-3.20
2018-12-05T05:41:37.637Z,-3.20
2018-12-05T05:49:00.463Z,-3.10
2018-12-05T05:51:30.140Z,-3.10
2018-12-05T05:53:58.367Z,-3.10
2018-12-05T05:56:26.022Z,-3.10
2018-12-05T05:59:00.347Z,-3.10
2018-12-05T06:01:28.752Z,-3.10
2018-12-05T06:03:56.539Z,-3.10
2018-12-05T06:06:45.917Z,-3.10
2018-12-05T06:09:13.487Z,-3.10
2018-12-05T06:11:44.471Z,-3.10
2018-12-05T06:14:12.995Z,-3.10
2018-12-05T06:16:40.766Z,-3.00
2018-12-05T06:19:08.383Z,-3.00
2018-12-05T06:21:35.998Z,-3.00
2018-12-05T06:24:03.647Z,-3.10
2018-12-05T06:26:32.067Z,-3.10
2018-12-05T06:29:03.151Z,-3.10
2018-12-05T06:31:37.083Z,-3.20
2018-12-05T06:34:04.778Z,-3.20
2018-12-05T06:36:32.325Z,-3.20
2018-12-05T06:38:59.961Z,-3.20
2018-12-05T06:41:27.760Z,-3.20
2018-12-05T06:43:55.325Z,-3.20
2018-12-05T06:46:26.795Z,-3.10
2018-12-05T06:56:11.950Z,-3.20
2018-12-05T06:58:45.785Z,-3.20
2018-12-05T07:01:21.217Z,-3.30
2018-12-05T07:03:48.813Z,-3.30
2018-12-05T07:06:17.165Z,-3.30
2018-12-05T07:08:45.729Z,-3.20
2018-12-05T07:11:21.757Z,-3.20
2018-12-05T07:14:04.540Z,-3.20
2018-12-05T07:16:32.373Z,-3.20
2018-12-05T07:19:00.044Z,-3.20
2018-12-05T07:21:27.819Z,-3.30
2018-12-05T07:24:01.723Z,-3.20
2018-12-05T07:26:29.503Z,-3.20
2018-12-05T07:28:57.306Z,-3.10
2018-12-05T07:31:25.122Z,-3.10
2018-12-05T07:33:53.262Z,-3.00
2018-12-05T07:36:21.090Z,-3.00
2018-12-05T07:38:55.470Z,-3.00
2018-12-05T07:41:23.939Z,-3.00
2018-12-05T07:43:51.541Z,-2.90
2018-12-05T07:46:19.959Z,-2.90
2018-12-05T07:48:47.948Z,-2.90
2018-12-05T07:54:12.334Z,-2.80
2018-12-05T07:56:39.838Z,-2.70
2018-12-05T07:59:08.193Z,-2.60
2018-12-05T08:01:45.497Z,-2.50
2018-12-05T08:04:13.056Z,-2.40
2018-12-05T08:06:40.830Z,-2.40
2018-12-05T08:09:08.466Z,-2.40
2018-12-05T08:11:41.996Z,-2.30
2018-12-05T08:14:16.008Z,-2.20
2018-12-05T08:16:47.386Z,-2.20
2018-12-05T08:19:15.091Z,-2.10
2018-12-05T08:24:39.721Z,-2.00
2018-12-05T08:27:08.163Z,-1.90
2018-12-05T08:29:36.165Z,-1.80
2018-12-05T08:32:05.430Z,-1.70
2018-12-05T08:34:33.636Z,-1.70
2018-12-05T08:37:01.188Z,-1.50
2018-12-05T08:39:29.624Z,-1.40
2018-12-05T08:41:57.266Z,-1.30
2018-12-05T08:44:24.985Z,-1.20
2018-12-05T08:46:53.603Z,-1.10
2018-12-05T08:49:21.139Z,-0.90
2018-12-05T08:51:48.703Z,-0.90
2018-12-05T08:54:21.052Z,-0.80
2018-12-05T08:56:45.899Z,-0.70
2018-12-05T08:59:19.970Z,-0.60
2018-12-05T09:01:47.709Z,-0.50
2018-12-05T09:04:15.883Z,-0.40
2018-12-05T09:09:36.406Z,-0.30
2018-12-05T09:12:04.432Z,-0.20
2018-12-05T09:14:32.213Z,-0.10
2018-12-05T09:17:00.637Z,0.00
2018-12-05T09:19:28.160Z,0.10
2018-12-05T09:21:55.755Z,0.20
2018-12-05T09:24:24.403Z,0.40
2018-12-05T09:26:51.911Z,0.50
2018-12-05T09:29:19.605Z,0.60
2018-12-05T09:31:47.174Z,0.60
2018-12-05T09:34:15.726Z,0.70
2018-12-05T09:36:43.386Z,0.80
2018-12-05T09:39:11.014Z,0.90
2018-12-05T09:41:42.143Z,1.00
2018-12-05T09:44:09.842Z,1.10
2018-12-05T09:46:37.435Z,1.20
2018-12-05T09:49:05.108Z,1.20
2018-12-05T09:51:32.718Z,1.30
2018-12-05T09:54:00.430Z,1.40
2018-12-05T09:56:28.018Z,1.50
2018-12-05T09:58:55.709Z,1.50
2018-12-05T10:01:23.243Z,1.60
2018-12-05T10:03:50.842Z,1.70
2018-12-05T10:06:18.533Z,1.80
2018-12-05T10:08:46.162Z,1.80
2018-12-05T10:11:14.164Z,1.80
2018-12-05T10:13:41.758Z,1.90
2018-12-05T10:16:09.490Z,2.00
2018-12-05T10:18:37.209Z,2.00
2018-12-05T10:21:04.897Z,2.10
2018-12-05T10:23:32.560Z,2.20
2018-12-05T10:26:00.898Z,2.40
2018-12-05T10:28:28.453Z,2.70
2018-12-05T10:30:56.144Z,2.80
2018-12-05T10:33:24.906Z,2.80
2018-12-05T10:35:52.644Z,2.60
2018-12-05T10:38:21.842Z,2.50
2018-12-05T10:40:49.490Z,2.40
2018-12-05T10:43:17.035Z,2.30
2018-12-05T10:45:44.758Z,2.20
2018-12-05T10:48:12.507Z,2.20
2018-12-05T10:50:40.109Z,2.20
2018-12-05T10:53:07.695Z,2.10
2018-12-05T10:55:36.247Z,2.10
2018-12-05T10:58:03.924Z,2.20
2018-12-05T11:00:47.031Z,2.10
2018-12-05T11:03:14.924Z,2.10
2018-12-05T11:05:48.151Z,2.20
2018-12-05T11:08:21.846Z,2.20
2018-12-05T11:10:55.138Z,2.20
2018-12-05T11:13:28.879Z,2.20
2018-12-05T11:16:03.492Z,2.20
2018-12-05T11:18:36.992Z,2.30
2018-12-05T11:21:10.931Z,2.30
2018-12-05T11:23:44.253Z,2.50
2018-12-05T11:26:14.636Z,3.00
2018-12-05T11:28:42.395Z,3.40
2018-12-05T11:31:10.082Z,3.60
2018-12-05T11:33:37.930Z,3.80
2018-12-05T11:36:05.598Z,4.00
2018-12-05T11:38:33.358Z,4.30
2018-12-05T11:41:01.064Z,4.80
2018-12-05T11:43:29.703Z,5.30
2018-12-05T11:45:58.286Z,5.60
2018-12-05T11:48:25.935Z,5.50
2018-12-05T11:50:53.819Z,5.40
2018-12-05T11:53:21.350Z,5.50
2018-12-05T11:55:49.126Z,5.50
2018-12-05T12:06:56.432Z,4.40
2018-12-05T12:09:24.865Z,4.10
2018-12-05T12:11:52.912Z,3.80
2018-12-05T12:14:21.440Z,3.70
2018-12-05T12:16:49.009Z,3.50
2018-12-05T12:19:16.519Z,3.50
2018-12-05T12:21:43.993Z,3.30
2018-12-05T12:24:11.506Z,3.30
2018-12-05T12:26:39.156Z,3.20
2018-12-05T12:29:09.210Z,3.20
2018-12-05T12:31:37.855Z,3.10
2018-12-05T12:34:08.234Z,3.00
2018-12-05T12:36:35.868Z,3.00
2018-12-05T12:39:06.557Z,3.00
2018-12-05T12:41:34.114Z,2.90
2018-12-05T12:44:01.883Z,2.90
2018-12-05T12:46:29.473Z,2.90
2018-12-05T12:48:56.986Z,2.80
2018-12-05T12:51:25.255Z,2.80
2018-12-05T12:53:53.341Z,2.80
2018-12-05T12:56:21.623Z,2.80
2018-12-05T12:58:50.760Z,2.80
2018-12-05T13:01:18.400Z,2.80
2018-12-05T13:03:47.698Z,2.80
2018-12-05T13:06:16.260Z,2.80
2018-12-05T13:08:45.018Z,2.80
2018-12-05T13:11:12.581Z,2.80
2018-12-05T13:13:40.071Z,2.70
2018-12-05T13:16:07.764Z,2.70
2018-12-05T13:18:35.568Z,2.70
2018-12-05T13:21:03.098Z,2.70
2018-12-05T13:23:32.020Z,2.70
2018-12-05T13:26:00.957Z,2.70
2018-12-05T13:28:28.797Z,2.70
2018-12-05T13:30:57.031Z,2.70
2018-12-05T13:33:25.523Z,2.60
2018-12-05T13:38:45.660Z,2.60
2018-12-05T13:41:14.303Z,2.50
2018-12-05T13:43:42.615Z,2.50
2018-12-05T13:46:11.725Z,2.40
2018-12-05T13:48:39.477Z,2.40
2018-12-05T13:51:07.094Z,2.40
2018-12-05T13:53:35.716Z,2.40
2018-12-05T13:56:03.238Z,2.40
2018-12-05T13:58:31.325Z,2.30
2018-12-05T14:00:58.803Z,2.30
2018-12-05T14:03:26.317Z,2.20
2018-12-05T14:05:53.820Z,2.20
2018-12-05T14:08:21.835Z,2.10
2018-12-05T14:11:00.376Z,2.00
2018-12-05T14:13:31.420Z,2.00
2018-12-05T14:15:59.435Z,1.90
2018-12-05T14:18:28.436Z,1.90
2018-12-05T14:20:57.313Z,1.80
2018-12-05T14:23:25.178Z,1.70
2018-12-05T14:25:53.463Z,1.60
2018-12-05T14:28:20.972Z,1.60
2018-12-05T14:30:48.493Z,1.50
2018-12-05T14:33:16.689Z,1.30
2018-12-05T14:35:44.571Z,1.30
2018-12-05T14:38:12.553Z,1.20
2018-12-05T14:40:40.915Z,1.10
2018-12-05T14:43:09.067Z,1.00
2018-12-05T14:45:36.618Z,0.90
2018-12-05T14:48:04.540Z,0.80
2018-12-05T14:50:32.051Z,0.80
2018-12-05T14:52:59.633Z,0.70
2018-12-05T14:55:28.169Z,0.70
2018-12-05T14:57:56.076Z,0.70
2018-12-05T15:00:23.623Z,0.70
2018-12-05T15:02:51.164Z,0.60
2018-12-05T15:05:18.664Z,0.60
2018-12-05T15:07:50.175Z,0.50
2018-12-05T15:10:17.808Z,0.50
2018-12-05T15:12:47.649Z,0.40
2018-12-05T15:15:15.161Z,0.40
2018-12-05T15:17:42.762Z,0.40
2018-12-05T15:20:11.850Z,0.30
2018-12-05T15:22:40.179Z,0.30
2018-12-05T15:25:07.857Z,0.20
2018-12-05T15:27:35.859Z,0.20
2018-12-05T15:30:04.837Z,0.20
2018-12-05T15:32:32.360Z,0.20
2018-12-05T15:35:00.851Z,0.20
2018-12-05T15:37:28.594Z,0.10
2018-12-05T15:39:56.890Z,0.20
2018-12-05T15:42:25.250Z,0.10
2018-12-05T15:44:52.785Z,0.10
2018-12-05T15:47:21.123Z,0.10
2018-12-05T15:49:48.659Z,0.10
2018-12-05T15:52:17.595Z,0.00
2018-12-05T15:54:45.912Z,0.00
2018-12-05T15:57:13.488Z,0.10
2018-12-05T15:59:40.968Z,0.00
2018-12-05T16:02:09.452Z,0.00
2018-12-05T16:04:37.045Z,0.00
2018-12-05T16:07:05.599Z,0.00
2018-12-05T16:11:58.975Z,-0.10
2018-12-05T16:14:26.460Z,-0.10
2018-12-05T16:16:54.052Z,-0.10
2018-12-05T16:19:21.585Z,-0.10
2018-12-05T16:21:49.051Z,-0.10
2018-12-05T16:24:17.091Z,-0.10
2018-12-05T16:26:44.576Z,-0.10
2018-12-05T16:29:12.071Z,-0.10
2018-12-05T16:31:39.578Z,-0.10
2018-12-05T16:34:07.074Z,-0.10
2018-12-05T16:36:34.836Z,-0.10
2018-12-05T16:39:04.705Z,-0.20
2018-12-05T16:41:32.737Z,-0.20
2018-12-05T16:44:00.648Z,-0.20
2018-12-05T16:46:28.446Z,-0.30
2018-12-05T16:48:56.490Z,-0.30
2018-12-05T16:51:24.062Z,-0.40
2018-12-05T16:53:51.662Z,-0.40
2018-12-05T16:56:19.728Z,-0.40
2018-12-05T16:58:47.481Z,-0.50
2018-12-05T17:01:15.185Z,-0.50
2018-12-05T17:03:43.202Z,-0.60
2018-12-05T17:06:10.973Z,-0.60
2018-12-05T17:08:38.662Z,-0.60
2018-12-05T17:11:06.205Z,-0.70
2018-12-05T17:13:36.063Z,-0.70
2018-12-05T17:16:03.842Z,-0.70
2018-12-05T17:18:32.476Z,-0.80
2018-12-05T17:21:00.949Z,-0.80
2018-12-05T17:23:28.562Z,-0.90
2018-12-05T17:25:56.292Z,-0.90
2018-12-05T17:28:24.367Z,-1.00
2018-12-05T17:30:52.924Z,-1.00
2018-12-05T17:33:20.810Z,-1.10
2018-12-05T17:35:48.709Z,-1.10
2018-12-05T17:38:16.329Z,-1.10
2018-12-05T17:40:44.974Z,-1.10
2018-12-05T17:43:12.732Z,-1.10
2018-12-05T17:45:40.924Z,-1.10
2018-12-05T17:48:08.530Z,-1.10
2018-12-05T17:50:36.302Z,-1.20
2018-12-05T17:53:05.291Z,-1.20
2018-12-05T17:55:33.022Z,-1.20
2018-12-05T17:58:01.827Z,-1.20
2018-12-05T18:00:31.170Z,-1.20
2018-12-05T18:02:58.710Z,-1.10
2018-12-05T18:05:26.731Z,-1.20
2018-12-05T18:07:56.123Z,-1.20
2018-12-05T18:10:24.321Z,-1.10
2018-12-05T18:12:51.838Z,-1.10
2018-12-05T18:15:19.345Z,-1.10
2018-12-05T18:17:48.278Z,-1.00
2018-12-05T18:20:15.808Z,-0.90
2018-12-05T18:22:43.318Z,-0.90
2018-12-05T18:25:11.321Z,-0.80
2018-12-05T18:27:38.819Z,-0.70
2018-12-05T18:30:06.880Z,-0.60
2018-12-05T18:32:34.769Z,-0.60
2018-12-05T18:35:02.292Z,-0.60
2018-12-05T18:37:30.660Z,-0.50
2018-12-05T18:39:58.198Z,-0.50
2018-12-05T18:42:25.836Z,-0.50
2018-12-05T18:44:53.365Z,-0.50
2018-12-05T18:47:20.867Z,-0.50
2018-12-05T18:49:48.411Z,-0.50
2018-12-05T18:52:16.399Z,-0.50
2018-12-05T18:54:44.018Z,-0.50
2018-12-05T18:57:11.773Z,-0.50
2018-12-05T18:59:39.703Z,-0.60
2018-12-05T19:02:07.855Z,-0.60
2018-12-05T19:04:36.889Z,-0.60
2018-12-05T19:07:05.163Z,-0.60
2018-12-05T19:09:32.700Z,-0.60
2018-12-05T19:12:02.180Z,-0.50
2018-12-05T19:14:36.607Z,-0.50
2018-12-05T19:17:04.787Z,-0.40
2018-12-05T19:19:32.366Z,-0.30
2018-12-05T19:22:00.701Z,-0.30
2018-12-05T19:24:29.617Z,-0.30
2018-12-05T19:26:58.151Z,-0.20
2018-12-05T19:29:26.335Z,-0.20
2018-12-05T19:31:54.775Z,-0.10
2018-12-05T19:34:22.911Z,-0.10
2018-12-05T19:36:51.353Z,-0.10
2018-12-05T19:39:20.855Z,-0.10
2018-12-05T19:41:49.287Z,0.00
2018-12-05T19:44:17.580Z,0.00
2018-12-05T19:46:45.738Z,0.00
2018-12-05T19:49:13.618Z,0.00
2018-12-05T19:51:44.035Z,0.00
2018-12-05T19:54:14.007Z,0.00
2018-12-05T19:56:42.619Z,0.00
2018-12-05T19:59:17.874Z,0.00
2018-12-05T20:01:46.232Z,0.00
2018-12-05T20:04:16.103Z,0.10
2018-12-05T20:06:44.514Z,0.10
2018-12-05T20:09:12.127Z,0.10
2018-12-05T20:11:43.195Z,0.10
2018-12-05T20:14:13.939Z,0.20
2018-12-05T20:16:41.464Z,0.20
2018-12-05T20:19:09.713Z,0.20
2018-12-05T20:21:37.214Z,0.20
2018-12-05T20:24:04.717Z,0.20
2018-12-05T20:26:32.229Z,0.20
2018-12-05T20:28:59.747Z,0.20
2018-12-05T20:31:28.052Z,0.20
2018-12-05T20:34:09.523Z,0.20
2018-12-05T20:36:37.094Z,0.20
2018-12-05T20:39:09.161Z,0.20
2018-12-05T20:41:36.872Z,0.30
2018-12-05T20:44:04.457Z,0.30
2018-12-05T20:46:32.023Z,0.30
2018-12-05T20:48:59.520Z,0.30
2018-12-05T20:51:28.026Z,0.30
2018-12-05T20:53:56.651Z,0.30
2018-12-05T20:56:24.676Z,0.40
2018-12-05T20:58:53.412Z,0.40
2018-12-05T21:01:21.469Z,0.40
2018-12-05T21:03:50.291Z,0.40
2018-12-05T21:06:19.317Z,0.40
2018-12-05T21:08:48.297Z,0.40
2018-12-05T21:11:16.529Z,0.40
2018-12-05T21:13:44.990Z,0.40
2018-12-05T21:16:13.009Z,0.40
2018-12-05T21:18:42.344Z,0.40
2018-12-05T21:21:10.738Z,0.50
2018-12-05T21:23:39.077Z,0.50
2018-12-05T21:26:07.690Z,0.50
2018-12-05T21:28:39.181Z,0.50
2018-12-05T21:31:06.711Z,0.50
2018-12-05T21:33:34.211Z,0.50
2018-12-05T21:36:02.416Z,0.60
2018-12-05T21:40:52.778Z,0.60
2018-12-05T21:43:20.538Z,0.60
2018-12-05T21:45:51.467Z,0.60
2018-12-05T21:48:19.326Z,0.70
2018-12-05T21:50:47.154Z,0.70
2018-12-05T21:53:17.819Z,0.70
2018-12-05T21:55:45.589Z,0.70
2018-12-05T21:58:13.762Z,0.80
2018-12-05T22:00:41.514Z,0.80
2018-12-05T22:03:09.315Z,0.80
2018-12-05T22:05:37.466Z,0.80
2018-12-05T22:08:05.309Z,0.80
2018-12-05T22:10:33.060Z,0.80
2018-12-05T22:13:00.837Z,0.80
2018-12-05T22:15:28.341Z,0.90
2018-12-05T22:17:56.062Z,0.90
2018-12-05T22:20:23.774Z,0.90
2018-12-05T22:22:51.860Z,0.90
2018-12-05T22:25:19.482Z,1.00
2018-12-05T22:27:47.234Z,1.00
2018-12-05T22:30:15.075Z,1.00
2018-12-05T22:32:42.689Z,1.00
2018-12-05T22:35:10.321Z,1.10
2018-12-05T22:37:37.944Z,1.10
2018-12-05T22:40:07.256Z,1.10
2018-12-05T22:42:35.173Z,1.10
2018-12-05T22:45:03.164Z,1.10
2018-12-05T22:47:30.936Z,1.10
2018-12-05T22:49:58.503Z,1.10
2018-12-05T22:52:26.224Z,1.10
2018-12-05T22:54:54.463Z,1.10
2018-12-05T22:57:22.343Z,1.10
2018-12-05T22:59:49.962Z,1.10
2018-12-05T23:02:18.036Z,1.10
2018-12-05T23:04:46.200Z,1.10
2018-12-05T23:07:14.139Z,1.20
2018-12-05T23:09:41.993Z,1.20
2018-12-05T23:12:09.779Z,1.20
2018-12-05T23:14:37.525Z,1.20
2018-12-05T23:17:05.945Z,1.30
2018-12-05T23:19:33.702Z,1.30
2018-12-05T23:22:01.426Z,1.30
2018-12-05T23:24:29.197Z,1.40
2018-12-05T23:26:57.272Z,1.40
2018-12-05T23:29:25.060Z,1.40
2018-12-05T23:31:52.787Z,1.40
2018-12-05T23:34:20.404Z,1.40
2018-12-05T23:36:48.074Z,1.40
2018-12-05T23:39:15.805Z,1.50
2018-12-05T23:41:43.769Z,1.50
2018-12-05T23:44:11.587Z,1.50
2018-12-05T23:46:39.409Z,1.60
2018-12-05T23:49:07.039Z,1.60
2018-12-05T23:51:34.716Z,1.60
2018-12-05T23:54:02.498Z,1.70
2018-12-05T23:56:31.450Z,1.70
2018-12-05T23:58:58.991Z,1.70
